Time;durP1;ratioP1;P1;durP2;ratioP2;P2;SDS_P1;SDS_P2;PMS_P1;PMS_P2;Temp;Humidity;BMP_temperature;BMP_pressure;BME280_temperature;BME280_humidity;BME280_pressure;Samples;Min_cycle;Max_cycle;Signal;HPM_P1;HPM_P2
2023/08/28 00:00:33;;;;;;;;;;;17.20;68.10;;;12.87;100.00;95144.44;5011606;28;19909;-54
2023/08/28 00:02:59;;;;;;;;;;;17.20;68.10;;;12.88;100.00;95139.88;5006560;28;20355;-52
2023/08/28 00:05:25;;;;;;;;;;;17.20;68.10;;;12.88;100.00;95142.56;5027694;28;20007;-55
2023/08/28 00:07:50;;;;;;;;;;;17.20;68.10;;;12.89;100.00;95144.97;5035395;28;19909;-54
2023/08/28 00:10:16;;;;;;;;;;;17.20;68.20;;;12.89;100.00;95138.81;5023518;28;19968;-52
2023/08/28 00:12:43;;;;;;;;;;;17.20;68.20;;;12.88;100.00;95134.53;5003827;28;19909;-55
2023/08/28 00:15:10;;;;;;;;;;;17.20;69.00;;;12.87;100.00;95133.75;5009074;28;19913;-54
2023/08/28 00:17:37;;;;;;;;;;;17.20;68.20;;;12.87;100.00;95128.41;5013160;28;19913;-56
2023/08/28 00:20:07;;;;;;;;;;;17.20;68.30;;;12.87;100.00;95125.72;5008339;28;19917;-54
2023/08/28 00:22:34;;;;;;;;;;;17.20;68.30;;;12.88;100.00;95129.19;5002743;28;19913;-55
2023/08/28 00:25:00;;;;;;;;;;;17.20;68.30;;;12.89;100.00;95133.47;5002350;28;19987;-56
2023/08/28 00:27:26;;;;;;;;;;;17.20;68.30;;;12.92;100.00;95140.91;5015740;28;19913;-56
2023/08/28 00:29:52;;;;;;;;;;;17.10;68.30;;;12.92;100.00;95149.72;5015865;28;19913;-55
2023/08/28 00:32:17;;;;;;;;;;;17.20;68.50;;;12.91;100.00;95161.50;5003273;28;19963;-56
2023/08/28 00:34:43;;;;;;;;;;;17.20;68.40;;;12.91;100.00;95161.50;5009362;28;19914;-48
2023/08/28 00:37:09;;;;;;;;;;;17.20;68.50;;;12.92;100.00;95159.63;5003363;28;19919;-50
2023/08/28 00:39:34;;;;;;;;;;;17.20;68.50;;;12.91;100.00;95152.66;5000937;28;19920;-53
2023/08/28 00:42:00;;;;;;;;;;;17.20;68.50;;;12.91;100.00;95153.50;5007573;28;19909;-56
2023/08/28 00:44:26;;;;;;;;;;;17.20;68.50;;;12.92;100.00;95151.59;5007413;28;19909;-54
2023/08/28 00:46:53;;;;;;;;;;;17.20;68.50;;;12.94;100.00;95146.75;5003100;28;19964;-56
2023/08/28 00:49:19;;;;;;;;;;;17.20;68.50;;;12.93;100.00;95137.94;4996657;28;20012;-53
2023/08/28 00:51:45;;;;;;;;;;;17.20;68.50;;;12.92;100.00;95140.91;5001925;28;19916;-50
2023/08/28 00:54:11;;;;;;;;;;;17.20;68.50;;;12.89;100.00;95147.63;5022956;28;19909;-55
2023/08/28 00:56:37;;;;;;;;;;;17.20;68.60;;;12.88;100.00;95138.03;5000532;28;19916;-50
2023/08/28 00:59:04;;;;;;;;;;;17.20;68.60;;;12.87;100.00;95130.28;5027162;28;20356;-52
2023/08/28 01:01:30;;;;;;;;;;;17.10;69.30;;;12.85;100.00;95122.56;5010978;28;19955;-55
2023/08/28 01:03:55;;;;;;;;;;;17.20;68.60;;;12.77;100.00;95117.88;5010286;28;19939;-51
2023/08/28 01:06:43;;;;;;;;;;;17.10;68.60;;;12.82;100.00;95109.78;5005269;28;19965;-51
2023/08/28 01:09:48;;;;;;;;;;;17.10;68.60;;;12.82;100.00;95101.75;5004655;28;19913;-55
2023/08/28 01:12:38;;;;;;;;;;;17.10;68.70;;;12.81;100.00;95099.38;5013354;28;19909;-49
2023/08/28 01:15:24;;;;;;;;;;;17.10;68.70;;;12.80;100.00;95101.25;5015091;28;19909;-54
2023/08/28 01:18:02;;;;;;;;;;;17.10;68.80;;;12.81;100.00;95099.38;4998814;28;19920;-55
2023/08/28 01:20:30;;;;;;;;;;;17.10;68.90;;;12.80;100.00;95087.88;5000468;28;19913;-53
2023/08/28 01:23:32;;;;;;;;;;;17.00;68.80;;;12.79;100.00;95074.81;4999158;28;19909;-54
2023/08/28 01:25:59;;;;;;;;;;;17.00;68.90;;;12.71;100.00;95062.91;5012412;28;19913;-50
2023/08/28 01:28:25;;;;;;;;;;;17.00;68.90;;;12.70;100.00;95055.97;4996048;28;19909;-52
2023/08/28 01:30:53;;;;;;;;;;;17.00;68.90;;;12.68;100.00;95050.13;5000029;28;19909;-54
2023/08/28 01:33:19;;;;;;;;;;;17.00;68.90;;;12.69;100.00;95044.50;5003938;28;19913;-55
2023/08/28 01:36:01;;;;;;;;;;;16.90;68.90;;;12.68;100.00;95034.88;5005619;28;20394;-54
2023/08/28 01:38:39;;;;;;;;;;;17.00;69.00;;;12.68;100.00;95040.22;5000327;28;19913;-55
2023/08/28 01:41:09;;;;;;;;;;;17.00;69.10;;;12.69;100.00;95033.00;4997690;28;19909;-52
2023/08/28 01:43:42;;;;;;;;;;;16.90;69.00;;;12.65;100.00;95023.97;4995685;28;19909;-51
2023/08/28 01:46:09;;;;;;;;;;;16.90;69.00;;;12.69;100.00;95012.44;5004781;28;19932;-54
2023/08/28 01:48:40;;;;;;;;;;;16.90;69.10;;;12.69;100.00;95009.75;4998273;28;19909;-51
2023/08/28 01:51:06;;;;;;;;;;;16.90;69.20;;;12.69;100.00;95017.78;5001766;28;20383;-52
2023/08/28 01:53:32;;;;;;;;;;;16.90;69.20;;;12.72;100.00;95011.03;5014496;28;19955;-53
2023/08/28 01:56:15;;;;;;;;;;;16.90;69.20;;;12.73;100.00;95018.00;5002604;28;19913;-55
2023/08/28 01:58:56;;;;;;;;;;;16.90;69.20;;;12.75;100.00;95007.78;5013377;28;20007;-53
2023/08/28 02:01:24;;;;;;;;;;;16.90;69.20;;;12.76;100.00;95005.94;5008386;28;19992;-50
2023/08/28 02:03:51;;;;;;;;;;;17.00;69.20;;;12.77;100.00;95007.50;5008879;28;19942;-51
2023/08/28 02:06:17;;;;;;;;;;;17.00;69.30;;;12.78;100.00;95014.44;5015165;28;19908;-52
2023/08/28 02:08:43;;;;;;;;;;;17.00;70.00;;;12.77;100.00;95010.97;5002858;28;20004;-50
2023/08/28 02:11:10;;;;;;;;;;;17.00;69.20;;;12.77;100.00;95018.97;5026510;28;19999;-54
2023/08/28 02:13:37;;;;;;;;;;;17.00;69.30;;;12.77;100.00;95026.22;5017223;28;19915;-55
2023/08/28 02:16:04;;;;;;;;;;;17.00;69.20;;;12.74;100.00;95016.91;5003746;28;19944;-53
2023/08/28 02:18:30;;;;;;;;;;;17.10;69.20;;;12.75;100.00;95015.78;5011015;28;20395;-51
2023/08/28 02:20:56;;;;;;;;;;;17.00;69.20;;;12.76;100.00;95017.41;5001980;28;19917;-52
2023/08/28 02:23:22;;;;;;;;;;;17.00;69.20;;;12.74;100.00;95017.69;5011503;28;19968;-48
2023/08/28 02:25:49;;;;;;;;;;;17.00;69.20;;;12.77;100.00;95012.84;5004501;28;19909;-50
2023/08/28 02:28:18;;;;;;;;;;;17.00;69.20;;;12.77;100.00;94996.81;5011027;28;19979;-51
2023/08/28 02:30:45;;;;;;;;;;;17.00;69.30;;;12.79;100.00;95002.66;5004814;28;20011;-53
2023/08/28 02:33:12;;;;;;;;;;;17.00;69.30;;;12.81;100.00;94990.56;5014060;28;19909;-53
2023/08/28 02:35:38;;;;;;;;;;;17.00;69.30;;;12.82;100.00;94994.84;5003671;28;19955;-49
2023/08/28 02:38:08;;;;;;;;;;;17.00;69.30;;;12.82;100.00;94991.41;5007809;28;20451;-51
2023/08/28 02:40:38;;;;;;;;;;;17.00;69.30;;;12.85;100.00;94980.09;5003816;28;19909;-51
2023/08/28 02:43:09;;;;;;;;;;;17.00;69.40;;;12.87;100.00;94984.06;5000780;28;20287;-49
2023/08/28 02:45:41;;;;;;;;;;;17.00;69.40;;;12.86;100.00;94979.03;5001610;28;19917;-47
2023/08/28 02:48:09;;;;;;;;;;;17.10;69.50;;;12.86;100.00;94977.16;5013035;28;19944;-50
2023/08/28 02:50:36;;;;;;;;;;;17.10;69.50;;;12.87;100.00;94980.59;5013198;28;19916;-50
2023/08/28 02:53:03;;;;;;;;;;;17.10;69.50;;;12.89;100.00;94973.88;5017326;28;19917;-49
2023/08/28 02:55:40;;;;;;;;;;;17.10;69.50;;;12.92;100.00;94967.94;5013394;28;20028;-52
2023/08/28 02:58:06;;;;;;;;;;;17.10;69.60;;;12.93;100.00;94964.19;5012439;28;19977;-51
2023/08/28 03:00:37;;;;;;;;;;;17.10;69.60;;;12.94;100.00;94963.13;4999710;28;19910;-51
2023/08/28 03:03:04;;;;;;;;;;;17.10;69.60;;;12.98;100.00;94960.66;5012581;28;19931;-47
2023/08/28 03:05:30;;;;;;;;;;;17.10;69.60;;;12.92;100.00;94957.25;5009934;28;19939;-50
2023/08/28 03:07:55;;;;;;;;;;;17.10;69.50;;;12.92;100.00;94953.81;5012843;28;19913;-50
2023/08/28 03:10:22;;;;;;;;;;;17.10;69.50;;;12.93;100.00;94958.03;5011847;28;20437;-50
2023/08/28 03:12:48;;;;;;;;;;;17.20;69.50;;;12.89;100.00;94949.03;5012877;28;20280;-50
2023/08/28 03:15:13;;;;;;;;;;;17.10;69.50;;;12.83;100.00;94950.22;5012939;28;19908;-50
2023/08/28 03:17:39;;;;;;;;;;;17.10;69.50;;;12.82;100.00;94948.63;5010915;28;19917;-49
2023/08/28 03:20:09;;;;;;;;;;;17.10;69.50;;;12.80;100.00;94946.25;5012815;28;19916;-50
2023/08/28 03:22:35;;;;;;;;;;;17.00;69.50;;;12.83;100.00;94940.31;5010969;28;19971;-51
2023/08/28 03:25:00;;;;;;;;;;;17.00;69.50;;;12.84;100.00;94930.41;5008684;28;20383;-52
2023/08/28 03:27:26;;;;;;;;;;;17.00;69.60;;;12.78;100.00;94926.25;5003559;28;20284;-53
2023/08/28 03:29:52;;;;;;;;;;;17.00;69.60;;;12.71;100.00;94922.06;5011123;28;19999;-52
2023/08/28 03:32:17;;;;;;;;;;;16.90;69.60;;;12.70;100.00;94915.16;5012395;28;20000;-51
2023/08/28 03:34:43;;;;;;;;;;;17.00;69.70;;;12.67;100.00;94915.72;5011327;28;20364;-49
2023/08/28 03:37:09;;;;;;;;;;;16.90;69.60;;;12.65;100.00;94922.44;5012359;28;19913;-54
2023/08/28 03:39:35;;;;;;;;;;;16.90;69.80;;;12.61;100.00;94916.13;5011753;28;19913;-49
2023/08/28 03:42:00;;;;;;;;;;;16.90;69.80;;;12.59;100.00;94923.63;5012316;28;19916;-49
2023/08/28 03:44:26;;;;;;;;;;;16.80;69.80;;;12.58;100.00;94919.38;5012200;28;20445;-51
2023/08/28 03:46:52;;;;;;;;;;;16.80;69.90;;;12.49;100.00;94925.38;5011090;28;20276;-52
2023/08/28 03:49:18;;;;;;;;;;;16.80;69.90;;;12.46;100.00;94925.94;5012310;28;20279;-50
2023/08/28 03:51:44;;;;;;;;;;;16.70;70.00;;;12.40;100.00;94916.44;5010997;28;19917;-49
2023/08/28 03:54:14;;;;;;;;;;;16.70;70.00;;;12.35;100.00;94915.75;5012320;28;19969;-51
2023/08/28 03:56:40;;;;;;;;;;;16.70;70.00;;;12.33;100.00;94926.69;5012379;28;20403;-50
2023/08/28 03:59:06;;;;;;;;;;;16.60;70.00;;;12.31;100.00;94925.41;5010897;28;19956;-48
2023/08/28 04:01:32;;;;;;;;;;;16.60;70.10;;;12.30;100.00;94934.50;5012071;28;19909;-52
2023/08/28 04:03:58;;;;;;;;;;;16.50;70.90;;;12.26;100.00;94940.44;5011086;28;19920;-51
2023/08/28 04:06:24;;;;;;;;;;;16.50;70.30;;;12.28;100.00;94929.44;5012986;28;20287;-52
2023/08/28 04:08:49;;;;;;;;;;;16.50;70.30;;;12.28;100.00;94932.13;5012569;28;19909;-49
2023/08/28 04:11:15;;;;;;;;;;;16.40;70.40;;;12.29;100.00;94930.25;5011258;28;20055;-51
2023/08/28 04:13:41;;;;;;;;;;;16.40;70.70;;;12.21;100.00;94923.69;5012186;28;19990;-48
2023/08/28 04:16:07;;;;;;;;;;;16.40;70.90;;;12.13;100.00;94927.03;5011079;28;20027;-48
2023/08/28 04:18:33;;;;;;;;;;;16.40;71.00;;;12.10;100.00;94940.97;5012352;28;19914;-54
2023/08/28 04:20:58;;;;;;;;;;;16.30;71.10;;;12.06;100.00;94938.03;5008324;28;19913;-50
2023/08/28 04:23:24;;;;;;;;;;;16.30;71.20;;;12.08;100.00;94932.44;5010876;28;19909;-49
2023/08/28 04:25:50;;;;;;;;;;;16.20;71.30;;;12.06;100.00;94930.03;5010998;28;19916;-51
2023/08/28 04:28:16;;;;;;;;;;;16.20;71.40;;;12.06;100.00;94930.03;5011410;28;19917;-53
2023/08/28 04:30:42;;;;;;;;;;;16.20;71.50;;;12.00;100.00;94918.66;5015433;28;20360;-52
2023/08/28 04:33:08;;;;;;;;;;;16.20;71.60;;;11.92;100.00;94905.16;5014704;28;19913;-49
2023/08/28 04:35:33;;;;;;;;;;;16.20;71.70;;;11.86;100.00;94907.13;5013386;28;19916;-52
2023/08/28 04:37:59;;;;;;;;;;;16.10;71.70;;;11.79;100.00;94912.78;5014152;28;19921;-52
2023/08/28 04:40:25;;;;;;;;;;;16.10;71.70;;;11.74;100.00;94904.84;5016966;28;19955;-51
2023/08/28 04:42:50;;;;;;;;;;;16.00;71.70;;;11.69;100.00;94922.78;5013411;28;20389;-47
2023/08/28 04:45:16;;;;;;;;;;;16.00;71.90;;;11.68;100.00;94927.31;5012823;28;20368;-49
2023/08/28 04:47:42;;;;;;;;;;;15.90;71.80;;;11.71;100.00;94912.63;5012536;28;20004;-50
2023/08/28 04:50:08;;;;;;;;;;;15.90;72.00;;;11.66;100.00;94916.16;5015495;28;20363;-50
2023/08/28 04:52:34;;;;;;;;;;;15.80;72.00;;;11.67;100.00;94901.75;5022149;23;20867;-44
2023/08/28 04:55:00;;;;;;;;;;;15.80;72.10;;;11.67;100.00;94892.94;4996438;28;19917;-44
2023/08/28 04:57:25;;;;;;;;;;;15.80;72.20;;;11.65;100.00;94887.09;5002013;28;19910;-44
2023/08/28 04:59:51;;;;;;;;;;;15.80;72.30;;;11.67;100.00;94899.06;5006690;28;19914;-44
2023/08/28 05:02:17;;;;;;;;;;;15.80;72.40;;;11.68;100.00;94905.97;4998428;28;19909;-44
2023/08/28 05:04:42;;;;;;;;;;;15.80;72.50;;;11.70;100.00;94908.38;4994600;28;19909;-45
2023/08/28 05:07:08;;;;;;;;;;;15.80;72.60;;;11.72;100.00;94907.00;4984088;28;19915;-44
2023/08/28 05:09:34;;;;;;;;;;;15.90;72.70;;;11.74;100.00;94880.81;5008968;28;19917;-44
2023/08/28 05:12:00;;;;;;;;;;;15.80;72.60;;;11.75;100.00;94855.75;4989308;28;19910;-46
2023/08/28 05:14:26;;;;;;;;;;;15.90;72.70;;;11.77;100.00;94839.44;4995193;28;19913;-48
2023/08/28 05:16:51;;;;;;;;;;;15.90;72.70;;;11.75;100.00;94860.28;4985499;28;19910;-44
2023/08/28 05:19:17;;;;;;;;;;;15.90;72.70;;;11.74;100.00;94864.03;5000037;28;19913;-44
2023/08/28 05:21:43;;;;;;;;;;;16.00;72.70;;;11.70;100.00;94857.69;5002596;28;19909;-50
2023/08/28 05:24:09;;;;;;;;;;;16.00;72.70;;;11.77;100.00;94844.78;5007355;28;19928;-45
2023/08/28 05:26:34;;;;;;;;;;;16.00;72.70;;;11.78;100.00;94836.50;4995306;28;19909;-44
2023/08/28 05:29:00;;;;;;;;;;;16.00;72.80;;;11.81;100.00;94853.78;4996038;28;20351;-47
2023/08/28 05:31:26;;;;;;;;;;;16.00;72.80;;;11.82;100.00;94872.19;5002695;28;19917;-45
2023/08/28 05:33:52;;;;;;;;;;;16.10;72.90;;;11.81;100.00;94875.13;4994172;28;19909;-47
2023/08/28 05:36:17;;;;;;;;;;;16.00;72.70;;;11.84;100.00;94874.53;4995136;28;19956;-45
2023/08/28 05:38:43;;;;;;;;;;;16.10;72.90;;;11.87;100.00;94889.22;4982301;28;19967;-45
2023/08/28 05:41:09;;;;;;;;;;;16.10;72.80;;;11.82;100.00;94888.19;5001889;28;19920;-45
2023/08/28 05:43:35;;;;;;;;;;;16.10;72.80;;;11.85;100.00;94894.06;4995070;28;20438;-45
2023/08/28 05:46:00;;;;;;;;;;;16.10;72.80;;;11.85;100.00;94896.75;4992775;28;19949;-44
2023/08/28 05:48:26;;;;;;;;;;;16.10;73.40;;;11.79;100.00;94879.97;4992942;28;19913;-45
2023/08/28 05:50:52;;;;;;;;;;;16.10;72.80;;;11.76;100.00;94862.66;4995008;28;19962;-44
2023/08/28 05:53:17;;;;;;;;;;;16.10;72.80;;;11.70;100.00;94857.69;4997467;28;19925;-47
2023/08/28 05:55:45;;;;;;;;;;;16.10;72.80;;;11.72;100.00;94852.84;5001908;28;19909;-44
2023/08/28 05:58:11;;;;;;;;;;;16.10;72.80;;;11.71;100.00;94853.94;4995549;28;19927;-45
2023/08/28 06:00:36;;;;;;;;;;;16.10;72.80;;;11.71;100.00;94853.94;5002082;28;20368;-44
2023/08/28 06:03:02;;;;;;;;;;;16.10;72.80;;;11.67;100.00;94863.59;4986928;28;19910;-42
2023/08/28 06:05:28;;;;;;;;;;;16.10;72.80;;;11.67;100.00;94858.28;4981670;28;19910;-44
2023/08/28 06:07:54;;;;;;;;;;;16.10;72.90;;;11.64;100.00;94862.31;4987982;28;19968;-45
2023/08/28 06:10:19;;;;;;;;;;;16.10;72.80;;;11.61;100.00;94868.22;4993247;28;20257;-45
2023/08/28 06:12:47;;;;;;;;;;;16.10;72.90;;;11.61;100.00;94859.41;4995244;28;19909;-44
2023/08/28 06:15:16;;;;;;;;;;;16.00;73.50;;;11.61;100.00;94860.22;5006349;28;20007;-44
2023/08/28 06:17:42;;;;;;;;;;;16.00;72.70;;;11.63;100.00;94876.72;4990909;28;20375;-45
2023/08/28 06:20:10;;;;;;;;;;;16.00;72.80;;;11.61;100.00;94856.75;4994170;28;19917;-44
2023/08/28 06:22:40;;;;;;;;;;;16.00;72.80;;;11.63;100.00;94844.72;4994748;28;19917;-44
2023/08/28 06:25:08;;;;;;;;;;;16.00;72.80;;;11.70;100.00;94839.81;4994150;28;20376;-44
2023/08/28 06:27:33;;;;;;;;;;;16.10;73.00;;;11.72;100.00;94840.31;5009901;28;20338;-44
2023/08/28 06:29:59;;;;;;;;;;;16.10;72.90;;;11.75;100.00;94849.59;4974761;28;19956;-43
2023/08/28 06:32:25;;;;;;;;;;;16.10;72.90;;;11.75;100.00;94860.28;4989932;28;20296;-44
2023/08/28 06:34:51;;;;;;;;;;;16.20;72.90;;;11.77;100.00;94861.56;5000650;28;19909;-44
2023/08/28 06:37:16;;;;;;;;;;;16.20;72.90;;;11.80;100.00;94842.31;4993770;28;19909;-44
2023/08/28 06:39:42;;;;;;;;;;;16.20;72.90;;;11.82;100.00;94845.50;5001131;28;20059;-43
2023/08/28 06:42:08;;;;;;;;;;;16.30;72.90;;;11.89;100.00;94852.38;4989254;28;19913;-46
2023/08/28 06:44:33;;;;;;;;;;;16.30;72.90;;;11.88;100.00;94866.81;4993711;28;20290;-45
2023/08/28 06:46:59;;;;;;;;;;;16.40;73.00;;;11.89;100.00;94863.06;4992992;28;19920;-44
2023/08/28 06:49:25;;;;;;;;;;;16.40;73.00;;;11.84;100.00;94855.06;4993634;28;19909;-44
2023/08/28 06:51:50;;;;;;;;;;;16.40;72.90;;;11.85;100.00;94849.50;4991277;28;19913;-43
2023/08/28 06:54:16;;;;;;;;;;;16.40;72.90;;;11.86;100.00;94835.06;4995286;28;20000;-44
2023/08/28 06:56:42;;;;;;;;;;;16.40;72.70;;;11.86;100.00;94835.06;4993931;28;19913;-44
2023/08/28 06:59:08;;;;;;;;;;;16.50;72.70;;;11.86;100.00;94835.06;4995982;28;19924;-44
2023/08/28 07:01:33;;;;;;;;;;;16.50;72.60;;;11.84;100.00;94833.72;5002062;28;19909;-44
2023/08/28 07:03:59;;;;;;;;;;;16.50;72.60;;;11.82;100.00;94840.16;4972883;28;19929;-44
2023/08/28 07:06:25;;;;;;;;;;;16.50;72.50;;;11.82;100.00;94850.84;4994443;28;19909;-45
2023/08/28 07:08:50;;;;;;;;;;;16.50;72.50;;;11.87;100.00;94857.19;4995956;28;19967;-44
2023/08/28 07:11:16;;;;;;;;;;;16.50;72.50;;;11.81;100.00;94859.94;4996406;28;19956;-44
2023/08/28 07:13:42;;;;;;;;;;;16.50;72.40;;;11.87;100.00;94855.31;5002915;28;20295;-44
2023/08/28 07:16:08;;;;;;;;;;;16.50;72.50;;;11.85;100.00;94856.72;4995825;28;20324;-44
2023/08/28 07:18:33;;;;;;;;;;;16.50;72.50;;;11.87;100.00;94865.19;4996035;28;20386;-45
2023/08/28 07:20:59;;;;;;;;;;;16.50;72.50;;;11.89;100.00;94863.06;4992157;28;19924;-48
2023/08/28 07:23:25;;;;;;;;;;;16.50;72.50;;;11.90;100.00;94864.63;5001804;28;19915;-44
2023/08/28 07:25:51;;;;;;;;;;;16.50;72.60;;;11.88;100.00;94864.16;4995121;28;19921;-45
2023/08/28 07:28:19;;;;;;;;;;;16.50;72.50;;;11.92;100.00;94867.81;5005011;28;19909;-44
2023/08/28 07:30:45;;;;;;;;;;;16.50;72.50;;;11.89;100.00;94866.50;4993046;28;20441;-44
2023/08/28 07:33:12;;;;;;;;;;;16.60;72.60;;;11.92;100.00;94870.47;4992055;28;19909;-45
2023/08/28 07:35:41;;;;;;;;;;;16.50;72.50;;;11.91;100.00;94872.34;4991226;28;19988;-44
2023/08/28 07:38:07;;;;;;;;;;;16.50;72.50;;;11.90;100.00;94860.06;4995040;28;19913;-44
2023/08/28 07:40:34;;;;;;;;;;;16.50;73.40;;;11.91;100.00;94848.34;5001556;28;20425;-44
2023/08/28 07:43:01;;;;;;;;;;;16.50;72.60;;;11.91;100.00;94837.66;5001643;28;19955;-45
2023/08/28 07:45:28;;;;;;;;;;;16.60;72.60;;;11.93;100.00;94850.69;5000479;28;20003;-44
2023/08/28 07:47:55;;;;;;;;;;;16.60;72.50;;;11.94;100.00;94852.28;4993768;28;20340;-44
2023/08/28 07:50:22;;;;;;;;;;;16.60;72.50;;;11.93;100.00;94850.69;5001159;28;19917;-44
2023/08/28 07:52:48;;;;;;;;;;;16.60;72.50;;;11.98;100.00;94858.66;4997022;28;19924;-44
2023/08/28 07:55:14;;;;;;;;;;;16.70;72.60;;;12.00;100.00;94867.13;4993417;28;20363;-44
2023/08/28 07:57:39;;;;;;;;;;;16.70;72.60;;;12.01;100.00;94858.06;4996100;28;19910;-48
2023/08/28 08:00:07;;;;;;;;;;;16.70;72.50;;;12.06;100.00;94857.97;4991807;28;19909;-46
2023/08/28 08:02:33;;;;;;;;;;;16.80;72.50;;;12.10;100.00;94866.22;4993792;28;19913;-44
2023/08/28 08:04:59;;;;;;;;;;;16.80;72.50;;;12.10;100.00;94856.31;4995953;28;19935;-43
2023/08/28 08:07:25;;;;;;;;;;;16.90;72.40;;;12.19;100.00;94848.41;5008957;28;19909;-45
2023/08/28 08:09:50;;;;;;;;;;;17.00;72.40;;;12.25;100.00;94852.59;5009239;28;19916;-46
2023/08/28 08:12:16;;;;;;;;;;;17.10;72.40;;;12.28;100.00;94846.66;5003660;28;20375;-44
2023/08/28 08:14:42;;;;;;;;;;;17.20;72.30;;;12.27;100.00;94843.22;5016059;28;19909;-44
2023/08/28 08:17:09;;;;;;;;;;;17.30;72.10;;;12.32;100.00;94853.03;5011262;28;19909;-44
2023/08/28 08:19:35;;;;;;;;;;;17.40;72.00;;;12.38;100.00;94848.38;5015753;28;19979;-44
2023/08/28 08:22:02;;;;;;;;;;;17.50;72.60;;;12.36;100.00;94840.66;5013311;28;19913;-46
2023/08/28 08:24:27;;;;;;;;;;;17.60;71.70;;;12.38;100.00;94849.19;4990265;28;19932;-47
2023/08/28 08:26:53;;;;;;;;;;;17.60;71.40;;;12.41;100.00;94856.63;5016049;28;19909;-43
2023/08/28 08:29:19;;;;;;;;;;;17.70;71.30;;;12.42;100.00;94849.38;5002921;28;19913;-43
2023/08/28 08:31:45;;;;;;;;;;;17.70;71.20;;;12.43;100.00;94851.75;5015852;28;19909;-45
2023/08/28 08:34:10;;;;;;;;;;;17.80;71.90;;;12.52;100.00;94859.88;5011860;28;19987;-43
2023/08/28 08:36:36;;;;;;;;;;;17.90;71.10;;;12.60;100.00;94853.88;5015935;28;19998;-44
2023/08/28 08:39:03;;;;;;;;;;;17.90;71.10;;;12.67;100.00;94854.28;5015729;28;20015;-47
2023/08/28 08:41:29;;;;;;;;;;;18.00;71.00;;;12.69;100.00;94853.97;5002095;28;19913;-46
2023/08/28 08:43:55;;;;;;;;;;;18.00;70.90;;;12.71;100.00;94846.47;4998308;28;19916;-44
2023/08/28 08:46:20;;;;;;;;;;;18.10;70.80;;;12.77;100.00;94845.28;5009983;28;19956;-44
2023/08/28 08:48:51;;;;;;;;;;;18.20;70.70;;;12.84;100.00;94840.31;5009214;28;19916;-46
2023/08/28 08:51:23;;;;;;;;;;;18.40;70.70;;;12.89;100.00;94823.41;5015683;28;21042;-47
2023/08/28 08:54:09;;;;;;;;;;;18.50;70.60;;;13.00;100.00;94834.69;4987205;28;19926;-44
2023/08/28 08:56:40;;;;;;;;;;;18.70;70.30;;;13.06;100.00;94825.47;4979250;28;19910;-44
2023/08/28 08:59:08;;;;;;;;;;;18.80;70.10;;;13.05;100.00;94832.72;5003763;28;20389;-45
2023/08/28 09:01:37;;;;;;;;;;;19.00;69.90;;;13.09;100.00;94827.56;4998307;28;19909;-44
2023/08/28 09:04:06;;;;;;;;;;;19.10;69.60;;;13.14;100.00;94825.59;5003379;28;20000;-44
2023/08/28 09:06:34;;;;;;;;;;;19.10;69.30;;;13.24;100.00;94829.13;5009186;28;20055;-45
2023/08/28 09:09:00;;;;;;;;;;;19.20;69.30;;;13.06;100.00;94825.47;4997938;28;19959;-44
2023/08/28 09:11:26;;;;;;;;;;;19.20;69.20;;;12.83;100.00;94822.72;4987808;28;19917;-44
2023/08/28 09:13:52;;;;;;;;;;;19.10;69.00;;;13.02;100.00;94822.63;5014464;28;19909;-48
2023/08/28 09:16:20;;;;;;;;;;;19.10;69.00;;;13.09;100.00;94822.22;4991967;28;19921;-46
2023/08/28 09:18:47;;;;;;;;;;;19.20;69.10;;;13.13;100.00;94820.50;5015314;28;20424;-46
2023/08/28 09:21:14;;;;;;;;;;;19.20;69.00;;;13.29;100.00;94819.16;4997534;28;19944;-46
2023/08/28 09:23:48;;;;;;;;;;;19.20;69.20;;;13.32;100.00;94812.44;4996614;28;19914;-44
2023/08/28 09:26:23;;;;;;;;;;;19.20;69.20;;;13.38;100.00;94819.22;5006946;28;20347;-44
2023/08/28 09:29:07;;;;;;;;;;;19.20;69.30;;;13.29;100.00;94819.16;5004786;28;19949;-44
2023/08/28 09:31:42;;;;;;;;;;;19.10;69.20;;;13.28;100.00;94820.22;5014601;28;19979;-44
2023/08/28 09:34:08;;;;;;;;;;;19.00;69.30;;;13.23;100.00;94806.16;5010591;28;19916;-43
2023/08/28 09:36:37;;;;;;;;;;;18.90;69.50;;;13.18;100.00;94807.84;5015000;28;19909;-45
2023/08/28 09:39:05;;;;;;;;;;;18.80;69.50;;;13.29;100.00;94802.31;5014504;28;19913;-44
2023/08/28 09:41:49;;;;;;;;;;;18.70;69.60;;;13.26;100.00;94803.72;5000602;28;19908;-46
2023/08/28 09:44:19;;;;;;;;;;;18.70;69.60;;;13.26;100.00;94805.59;5014887;28;19909;-47
2023/08/28 09:46:48;;;;;;;;;;;18.70;69.60;;;13.26;100.00;94800.25;4997738;28;19916;-46
2023/08/28 09:49:14;;;;;;;;;;;18.70;69.60;;;13.33;100.00;94803.31;5005914;28;19915;-45
2023/08/28 09:51:47;;;;;;;;;;;18.80;70.50;;;13.17;100.00;94803.59;5005463;28;19939;-45
2023/08/28 09:54:15;;;;;;;;;;;18.90;69.60;;;13.30;100.00;94806.56;5000432;28;19913;-43
2023/08/28 09:56:43;;;;;;;;;;;18.90;69.40;;;13.34;100.00;94812.91;4995146;28;19932;-46
2023/08/28 09:59:13;;;;;;;;;;;19.10;69.30;;;13.40;100.00;94819.72;5007886;28;19913;-46
2023/08/28 10:01:39;;;;;;;;;;;19.20;69.00;;;13.44;100.00;94823.38;4987890;28;19917;-47
2023/08/28 10:04:08;;;;;;;;;;;19.30;68.90;;;13.51;100.00;94818.44;5010390;28;19909;-46
2023/08/28 10:06:38;;;;;;;;;;;19.30;68.80;;;13.46;100.00;94815.84;5008780;28;19909;-46
2023/08/28 10:09:15;;;;;;;;;;;19.30;68.70;;;13.52;100.00;94822.66;5014507;28;19909;-46
2023/08/28 10:11:43;;;;;;;;;;;19.40;68.70;;;13.53;100.00;94810.09;4987012;28;19917;-46
2023/08/28 10:14:10;;;;;;;;;;;19.50;68.50;;;13.61;100.00;94814.72;5014527;28;19915;-44
2023/08/28 10:16:49;;;;;;;;;;;19.50;68.30;;;13.68;100.00;94809.75;4990001;28;19917;-43
2023/08/28 10:19:36;;;;;;;;;;;19.60;68.30;;;13.87;100.00;94814.94;5015052;28;19920;-44
2023/08/28 10:22:07;;;;;;;;;;;19.70;68.30;;;13.89;100.00;94810.06;4981550;28;19909;-43
2023/08/28 10:24:39;;;;;;;;;;;19.80;68.30;;;13.90;100.00;94814.31;4984443;28;19910;-44
2023/08/28 10:27:07;;;;;;;;;;;19.80;68.20;;;13.77;100.00;94815.97;4996109;28;19916;-46
2023/08/28 10:29:36;;;;;;;;;;;19.80;68.20;;;13.80;100.00;94820.72;4983358;28;19917;-46
2023/08/28 10:32:07;;;;;;;;;;;19.70;68.20;;;13.88;100.00;94814.63;5013976;28;19909;-44
2023/08/28 10:34:34;;;;;;;;;;;19.70;68.30;;;13.99;100.00;94822.44;4993410;28;19909;-46
2023/08/28 10:37:04;;;;;;;;;;;19.70;68.40;;;14.05;100.00;94838.06;4996493;28;20014;-44
2023/08/28 10:39:30;;;;;;;;;;;19.70;68.40;;;13.91;100.00;94831.97;4996716;28;19913;-44
2023/08/28 10:41:56;;;;;;;;;;;19.70;68.60;;;13.83;100.00;94832.69;4998415;28;19915;-44
2023/08/28 10:44:25;;;;;;;;;;;19.70;68.40;;;13.87;100.00;94822.97;4995608;28;26655;-45
2023/08/28 10:46:51;;;;;;;;;;;19.70;68.50;;;13.93;100.00;94816.41;4987800;28;19964;-46
2023/08/28 10:49:18;;;;;;;;;;;19.70;68.40;;;13.93;100.00;94819.06;4994083;28;19916;-45
2023/08/28 10:51:44;;;;;;;;;;;19.70;68.40;;;13.87;100.00;94821.06;5012844;28;20260;-54
2023/08/28 10:54:11;;;;;;;;;;;19.70;68.30;;;13.96;100.00;94821.13;5000446;23;20308;-47
2023/08/28 10:56:39;;;;;;;;;;;19.70;68.30;;;13.92;100.00;94817.50;5001373;28;19913;-52
2023/08/28 10:59:25;;;;;;;;;;;19.70;68.20;;;13.96;100.00;94829.16;5001731;28;20002;-49
2023/08/28 11:01:59;;;;;;;;;;;19.70;68.30;;;13.99;100.00;94825.09;4992716;28;19910;-50
2023/08/28 11:04:35;;;;;;;;;;;19.60;68.40;;;14.01;100.00;94818.34;4987446;28;19937;-50
2023/08/28 11:07:02;;;;;;;;;;;19.60;68.50;;;13.91;100.00;94815.91;4990801;28;20352;-48
2023/08/28 11:09:28;;;;;;;;;;;19.50;68.60;;;13.82;100.00;94812.34;4988120;28;19999;-51
2023/08/28 11:12:15;;;;;;;;;;;19.50;68.60;;;13.80;100.00;94820.72;4992482;28;19993;-46